sensor_id;sensor_type;location;lat;lon;timestamp;P1;durP1;ratioP1;P2;durP2;ratioP2
77400;SDS011;66855;45.414;11.082;2023-03-01T00:01:01;6.80;;;3.60;;
77400;SDS011;66855;45.414;11.082;2023-03-01T00:03:29;7.30;;;3.70;;
77400;SDS011;66855;45.414;11.082;2023-03-01T00:05:55;7.10;;;4.20;;
77400;SDS011;66855;45.414;11.082;2023-03-01T00:08:21;8.20;;;4.10;;
77400;SDS011;66855;45.414;11.082;2023-03-01T00:10:48;7.70;;;4.00;;
77400;SDS011;66855;45.414;11.082;2023-03-01T00:13:14;8.00;;;4.30;;
77400;SDS011;66855;45.414;11.082;2023-03-01T00:15:40;9.50;;;4.40;;
77400;SDS011;66855;45.414;11.082;2023-03-01T00:18:07;7.70;;;4.20;;
77400;SDS011;66855;45.414;11.082;2023-03-01T00:20:34;9.20;;;4.10;;
77400;SDS011;66855;45.414;11.082;2023-03-01T00:23:00;5.70;;;3.10;;
77400;SDS011;66855;45.414;11.082;2023-03-01T00:25:26;7.50;;;3.90;;
77400;SDS011;66855;45.414;11.082;2023-03-01T00:27:52;6.70;;;3.60;;
77400;SDS011;66855;45.414;11.082;2023-03-01T00:30:18;6.80;;;3.80;;
77400;SDS011;66855;45.414;11.082;2023-03-01T00:32:45;8.30;;;3.60;;
77400;SDS011;66855;45.414;11.082;2023-03-01T00:35:11;7.30;;;4.10;;
77400;SDS011;66855;45.414;11.082;2023-03-01T00:37:37;6.40;;;3.90;;
77400;SDS011;66855;45.414;11.082;2023-03-01T00:40:04;8.90;;;4.00;;
77400;SDS011;66855;45.414;11.082;2023-03-01T00:42:31;9.00;;;4.20;;
77400;SDS011;66855;45.414;11.082;2023-03-01T00:44:58;8.10;;;5.00;;
77400;SDS011;66855;45.414;11.082;2023-03-01T00:47:24;9.20;;;4.50;;
77400;SDS011;66855;45.414;11.082;2023-03-01T00:49:51;7.30;;;4.60;;
77400;SDS011;66855;45.414;11.082;2023-03-01T00:52:17;8.90;;;4.90;;
77400;SDS011;66855;45.414;11.082;2023-03-01T00:54:43;9.10;;;4.20;;
77400;SDS011;66855;45.414;11.082;2023-03-01T00:57:09;9.00;;;4.20;;
77400;SDS011;66855;45.414;11.082;2023-03-01T00:59:35;9.30;;;5.30;;
77400;SDS011;66855;45.414;11.082;2023-03-01T01:02:01;10.10;;;4.60;;
77400;SDS011;66855;45.414;11.082;2023-03-01T01:04:27;8.40;;;4.60;;
77400;SDS011;66855;45.414;11.082;2023-03-01T01:06:53;8.90;;;3.60;;
77400;SDS011;66855;45.414;11.082;2023-03-01T01:09:19;10.20;;;4.40;;
77400;SDS011;66855;45.414;11.082;2023-03-01T01:11:47;10.70;;;4.70;;
77400;SDS011;66855;45.414;11.082;2023-03-01T01:14:14;11.40;;;5.10;;
77400;SDS011;66855;45.414;11.082;2023-03-01T01:16:41;10.00;;;4.80;;
77400;SDS011;66855;45.414;11.082;2023-03-01T01:19:07;7.50;;;4.00;;
77400;SDS011;66855;45.414;11.082;2023-03-01T01:21:34;9.60;;;4.20;;
77400;SDS011;66855;45.414;11.082;2023-03-01T01:24:04;8.40;;;3.50;;
77400;SDS011;66855;45.414;11.082;2023-03-01T01:26:31;7.80;;;4.00;;
77400;SDS011;66855;45.414;11.082;2023-03-01T01:29:00;10.20;;;4.90;;
77400;SDS011;66855;45.414;11.082;2023-03-01T01:31:27;6.70;;;3.60;;
77400;SDS011;66855;45.414;11.082;2023-03-01T01:33:54;8.10;;;4.60;;
77400;SDS011;66855;45.414;11.082;2023-03-01T01:36:21;5.40;;;2.70;;
77400;SDS011;66855;45.414;11.082;2023-03-01T01:38:48;7.80;;;3.60;;
77400;SDS011;66855;45.414;11.082;2023-03-01T01:41:15;9.80;;;4.40;;
77400;SDS011;66855;45.414;11.082;2023-03-01T01:43:43;9.40;;;5.00;;
77400;SDS011;66855;45.414;11.082;2023-03-01T01:48:54;8.70;;;4.50;;
77400;SDS011;66855;45.414;11.082;2023-03-01T01:51:27;9.90;;;4.50;;
77400;SDS011;66855;45.414;11.082;2023-03-01T01:53:56;8.50;;;4.40;;
77400;SDS011;66855;45.414;11.082;2023-03-01T01:56:25;9.80;;;4.40;;
77400;SDS011;66855;45.414;11.082;2023-03-01T01:58:53;6.80;;;3.40;;
77400;SDS011;66855;45.414;11.082;2023-03-01T02:01:19;5.20;;;2.10;;
77400;SDS011;66855;45.414;11.082;2023-03-01T02:03:46;8.40;;;3.70;;
77400;SDS011;66855;45.414;11.082;2023-03-01T02:06:15;6.90;;;3.90;;
77400;SDS011;66855;45.414;11.082;2023-03-01T02:08:45;10.70;;;3.90;;
77400;SDS011;66855;45.414;11.082;2023-03-01T02:11:13;9.60;;;4.60;;
77400;SDS011;66855;45.414;11.082;2023-03-01T02:13:40;7.50;;;3.30;;
77400;SDS011;66855;45.414;11.082;2023-03-01T02:16:10;9.00;;;4.30;;
77400;SDS011;66855;45.414;11.082;2023-03-01T02:18:39;10.00;;;4.60;;
77400;SDS011;66855;45.414;11.082;2023-03-01T02:23:53;10.60;;;4.30;;
77400;SDS011;66855;45.414;11.082;2023-03-01T02:28:54;9.00;;;4.20;;
77400;SDS011;66855;45.414;11.082;2023-03-01T02:31:20;7.70;;;3.70;;
77400;SDS011;66855;45.414;11.082;2023-03-01T02:34:06;6.50;;;3.10;;
77400;SDS011;66855;45.414;11.082;2023-03-01T02:36:36;5.40;;;2.80;;
77400;SDS011;66855;45.414;11.082;2023-03-01T02:39:08;9.00;;;3.90;;
77400;SDS011;66855;45.414;11.082;2023-03-01T02:41:41;7.90;;;3.90;;
77400;SDS011;66855;45.414;11.082;2023-03-01T02:44:17;8.40;;;3.90;;
77400;SDS011;66855;45.414;11.082;2023-03-01T02:46:49;9.60;;;4.00;;
77400;SDS011;66855;45.414;11.082;2023-03-01T02:49:27;8.50;;;4.10;;
77400;SDS011;66855;45.414;11.082;2023-03-01T02:57:33;7.20;;;3.00;;
77400;SDS011;66855;45.414;11.082;2023-03-01T03:00:03;7.90;;;4.10;;
77400;SDS011;66855;45.414;11.082;2023-03-01T03:02:34;5.40;;;2.40;;
77400;SDS011;66855;45.414;11.082;2023-03-01T03:05:16;6.50;;;3.20;;
77400;SDS011;66855;45.414;11.082;2023-03-01T03:07:46;5.80;;;2.70;;
77400;SDS011;66855;45.414;11.082;2023-03-01T03:10:20;9.50;;;4.50;;
77400;SDS011;66855;45.414;11.082;2023-03-01T03:15:25;8.00;;;3.30;;
77400;SDS011;66855;45.414;11.082;2023-03-01T03:20:21;7.20;;;3.50;;
77400;SDS011;66855;45.414;11.082;2023-03-01T03:22:50;7.00;;;3.50;;
77400;SDS011;66855;45.414;11.082;2023-03-01T03:25:18;7.60;;;4.20;;
77400;SDS011;66855;45.414;11.082;2023-03-01T03:27:45;8.20;;;4.70;;
77400;SDS011;66855;45.414;11.082;2023-03-01T03:30:14;7.50;;;2.90;;
77400;SDS011;66855;45.414;11.082;2023-03-01T03:32:42;7.40;;;3.70;;
77400;SDS011;66855;45.414;11.082;2023-03-01T03:36:00;9.70;;;3.70;;
77400;SDS011;66855;45.414;11.082;2023-03-01T03:38:09;8.20;;;3.70;;
77400;SDS011;66855;45.414;11.082;2023-03-01T03:40:42;8.40;;;4.40;;
77400;SDS011;66855;45.414;11.082;2023-03-01T03:43:14;13.90;;;4.70;;
77400;SDS011;66855;45.414;11.082;2023-03-01T03:45:48;9.20;;;4.30;;
77400;SDS011;66855;45.414;11.082;2023-03-01T03:48:16;11.50;;;4.80;;
77400;SDS011;66855;45.414;11.082;2023-03-01T03:50:52;9.30;;;4.60;;
77400;SDS011;66855;45.414;11.082;2023-03-01T03:53:20;11.10;;;5.40;;
77400;SDS011;66855;45.414;11.082;2023-03-01T03:55:47;9.40;;;4.50;;
77400;SDS011;66855;45.414;11.082;2023-03-01T03:58:17;10.80;;;4.70;;
77400;SDS011;66855;45.414;11.082;2023-03-01T04:00:46;12.60;;;6.10;;
77400;SDS011;66855;45.414;11.082;2023-03-01T04:03:17;12.20;;;5.70;;
77400;SDS011;66855;45.414;11.082;2023-03-01T04:05:44;10.30;;;5.20;;
77400;SDS011;66855;45.414;11.082;2023-03-01T04:08:11;10.40;;;4.20;;
77400;SDS011;66855;45.414;11.082;2023-03-01T04:10:42;9.90;;;4.20;;
77400;SDS011;66855;45.414;11.082;2023-03-01T04:13:11;10.80;;;4.80;;
77400;SDS011;66855;45.414;11.082;2023-03-01T04:15:39;11.00;;;5.70;;
77400;SDS011;66855;45.414;11.082;2023-03-01T04:18:06;9.70;;;4.70;;
77400;SDS011;66855;45.414;11.082;2023-03-01T04:20:33;11.40;;;5.00;;
77400;SDS011;66855;45.414;11.082;2023-03-01T04:23:05;11.00;;;4.60;;
77400;SDS011;66855;45.414;11.082;2023-03-01T04:25:42;9.80;;;4.80;;
77400;SDS011;66855;45.414;11.082;2023-03-01T04:28:12;11.20;;;4.90;;
77400;SDS011;66855;45.414;11.082;2023-03-01T04:30:38;10.30;;;4.90;;
77400;SDS011;66855;45.414;11.082;2023-03-01T04:33:05;10.20;;;4.80;;
77400;SDS011;66855;45.414;11.082;2023-03-01T04:35:32;10.50;;;4.80;;
77400;SDS011;66855;45.414;11.082;2023-03-01T04:37:58;9.90;;;4.50;;
77400;SDS011;66855;45.414;11.082;2023-03-01T04:40:24;12.10;;;5.50;;
77400;SDS011;66855;45.414;11.082;2023-03-01T04:42:51;11.20;;;5.60;;
77400;SDS011;66855;45.414;11.082;2023-03-01T04:45:17;10.90;;;5.00;;
77400;SDS011;66855;45.414;11.082;2023-03-01T04:47:43;13.00;;;6.10;;
77400;SDS011;66855;45.414;11.082;2023-03-01T04:50:12;12.30;;;5.40;;
77400;SDS011;66855;45.414;11.082;2023-03-01T04:52:40;9.90;;;4.70;;
77400;SDS011;66855;45.414;11.082;2023-03-01T04:55:06;8.10;;;3.80;;
77400;SDS011;66855;45.414;11.082;2023-03-01T04:57:33;14.40;;;4.90;;
77400;SDS011;66855;45.414;11.082;2023-03-01T05:00:01;6.50;;;3.10;;
77400;SDS011;66855;45.414;11.082;2023-03-01T05:02:46;9.10;;;3.30;;
77400;SDS011;66855;45.414;11.082;2023-03-01T05:05:14;11.70;;;4.60;;
77400;SDS011;66855;45.414;11.082;2023-03-01T05:07:41;14.50;;;5.50;;
77400;SDS011;66855;45.414;11.082;2023-03-01T05:10:07;10.90;;;4.90;;
77400;SDS011;66855;45.414;11.082;2023-03-01T05:12:33;12.10;;;5.20;;
77400;SDS011;66855;45.414;11.082;2023-03-01T05:15:00;10.20;;;4.80;;
77400;SDS011;66855;45.414;11.082;2023-03-01T05:17:26;13.00;;;6.30;;
77400;SDS011;66855;45.414;11.082;2023-03-01T05:19:52;12.90;;;6.10;;
77400;SDS011;66855;45.414;11.082;2023-03-01T05:22:20;17.00;;;7.70;;
77400;SDS011;66855;45.414;11.082;2023-03-01T05:24:46;11.90;;;4.90;;
77400;SDS011;66855;45.414;11.082;2023-03-01T05:27:12;13.90;;;5.70;;
77400;SDS011;66855;45.414;11.082;2023-03-01T05:29:40;4.60;;;2.60;;
77400;SDS011;66855;45.414;11.082;2023-03-01T05:32:06;10.30;;;4.80;;
77400;SDS011;66855;45.414;11.082;2023-03-01T05:34:35;9.50;;;4.50;;
77400;SDS011;66855;45.414;11.082;2023-03-01T05:37:02;12.70;;;4.80;;
77400;SDS011;66855;45.414;11.082;2023-03-01T05:39:28;9.80;;;4.70;;
77400;SDS011;66855;45.414;11.082;2023-03-01T05:41:56;10.90;;;4.60;;
77400;SDS011;66855;45.414;11.082;2023-03-01T05:44:23;9.10;;;4.70;;
77400;SDS011;66855;45.414;11.082;2023-03-01T05:46:50;10.30;;;5.00;;
77400;SDS011;66855;45.414;11.082;2023-03-01T05:49:17;15.20;;;5.60;;
77400;SDS011;66855;45.414;11.082;2023-03-01T05:51:47;10.90;;;5.00;;
77400;SDS011;66855;45.414;11.082;2023-03-01T05:54:14;10.20;;;5.20;;
77400;SDS011;66855;45.414;11.082;2023-03-01T05:56:41;11.50;;;5.10;;
77400;SDS011;66855;45.414;11.082;2023-03-01T05:59:08;11.00;;;4.70;;
77400;SDS011;66855;45.414;11.082;2023-03-01T06:01:34;16.50;;;5.60;;
77400;SDS011;66855;45.414;11.082;2023-03-01T06:04:01;12.90;;;5.40;;
77400;SDS011;66855;45.414;11.082;2023-03-01T06:06:28;13.40;;;6.30;;
77400;SDS011;66855;45.414;11.082;2023-03-01T06:08:54;13.50;;;6.20;;
77400;SDS011;66855;45.414;11.082;2023-03-01T06:11:21;13.90;;;6.30;;
77400;SDS011;66855;45.414;11.082;2023-03-01T06:13:48;20.60;;;6.70;;
77400;SDS011;66855;45.414;11.082;2023-03-01T06:16:14;12.30;;;5.80;;
77400;SDS011;66855;45.414;11.082;2023-03-01T06:18:40;12.40;;;5.40;;
77400;SDS011;66855;45.414;11.082;2023-03-01T06:21:06;13.60;;;6.40;;
77400;SDS011;66855;45.414;11.082;2023-03-01T06:23:33;16.70;;;8.00;;
77400;SDS011;66855;45.414;11.082;2023-03-01T06:26:00;14.80;;;8.10;;
77400;SDS011;66855;45.414;11.082;2023-03-01T06:28:30;21.50;;;8.90;;
77400;SDS011;66855;45.414;11.082;2023-03-01T06:30:56;22.20;;;8.70;;
77400;SDS011;66855;45.414;11.082;2023-03-01T06:33:22;15.50;;;8.50;;
77400;SDS011;66855;45.414;11.082;2023-03-01T06:35:50;18.90;;;8.40;;
77400;SDS011;66855;45.414;11.082;2023-03-01T06:38:16;15.60;;;8.10;;
77400;SDS011;66855;45.414;11.082;2023-03-01T06:40:45;19.10;;;8.40;;
77400;SDS011;66855;45.414;11.082;2023-03-01T06:43:17;21.40;;;8.00;;
77400;SDS011;66855;45.414;11.082;2023-03-01T06:45:43;20.60;;;8.10;;
77400;SDS011;66855;45.414;11.082;2023-03-01T06:48:09;17.20;;;8.40;;
77400;SDS011;66855;45.414;11.082;2023-03-01T06:50:35;15.90;;;7.10;;
77400;SDS011;66855;45.414;11.082;2023-03-01T06:53:02;17.30;;;6.50;;
77400;SDS011;66855;45.414;11.082;2023-03-01T06:55:28;20.40;;;7.70;;
77400;SDS011;66855;45.414;11.082;2023-03-01T06:57:55;18.20;;;8.20;;
77400;SDS011;66855;45.414;11.082;2023-03-01T07:00:22;19.00;;;8.70;;
77400;SDS011;66855;45.414;11.082;2023-03-01T07:02:49;24.60;;;12.40;;
77400;SDS011;66855;45.414;11.082;2023-03-01T07:05:15;22.40;;;10.30;;
77400;SDS011;66855;45.414;11.082;2023-03-01T07:07:41;20.50;;;9.90;;
77400;SDS011;66855;45.414;11.082;2023-03-01T07:10:07;20.50;;;9.40;;
77400;SDS011;66855;45.414;11.082;2023-03-01T07:12:34;17.70;;;8.90;;
77400;SDS011;66855;45.414;11.082;2023-03-01T07:15:00;22.00;;;9.50;;
77400;SDS011;66855;45.414;11.082;2023-03-01T07:17:26;20.50;;;8.80;;
77400;SDS011;66855;45.414;11.082;2023-03-01T07:19:53;20.70;;;10.20;;
77400;SDS011;66855;45.414;11.082;2023-03-01T07:22:19;19.50;;;10.00;;
77400;SDS011;66855;45.414;11.082;2023-03-01T07:24:45;18.10;;;8.80;;
77400;SDS011;66855;45.414;11.082;2023-03-01T07:27:11;19.50;;;9.90;;
77400;SDS011;66855;45.414;11.082;2023-03-01T07:29:38;21.30;;;10.00;;
77400;SDS011;66855;45.414;11.082;2023-03-01T07:32:05;20.70;;;9.60;;
77400;SDS011;66855;45.414;11.082;2023-03-01T07:34:32;17.40;;;9.90;;
77400;SDS011;66855;45.414;11.082;2023-03-01T07:36:58;20.70;;;10.00;;
77400;SDS011;66855;45.414;11.082;2023-03-01T07:39:24;22.10;;;11.90;;
77400;SDS011;66855;45.414;11.082;2023-03-01T07:41:50;24.60;;;10.90;;
77400;SDS011;66855;45.414;11.082;2023-03-01T07:44:20;23.20;;;10.40;;
77400;SDS011;66855;45.414;11.082;2023-03-01T07:46:46;24.30;;;10.70;;
77400;SDS011;66855;45.414;11.082;2023-03-01T07:49:12;23.30;;;12.30;;
77400;SDS011;66855;45.414;11.082;2023-03-01T07:51:38;25.00;;;11.20;;
77400;SDS011;66855;45.414;11.082;2023-03-01T07:54:04;23.40;;;11.00;;
77400;SDS011;66855;45.414;11.082;2023-03-01T07:56:30;21.50;;;11.30;;
77400;SDS011;66855;45.414;11.082;2023-03-01T07:58:58;23.50;;;12.10;;
77400;SDS011;66855;45.414;11.082;2023-03-01T08:03:59;24.40;;;11.40;;
77400;SDS011;66855;45.414;11.082;2023-03-01T08:06:25;25.10;;;12.00;;
77400;SDS011;66855;45.414;11.082;2023-03-01T08:08:51;25.20;;;11.70;;
77400;SDS011;66855;45.414;11.082;2023-03-01T08:11:17;22.30;;;12.00;;
77400;SDS011;66855;45.414;11.082;2023-03-01T08:13:43;20.80;;;11.30;;
77400;SDS011;66855;45.414;11.082;2023-03-01T08:16:11;22.50;;;11.60;;
77400;SDS011;66855;45.414;11.082;2023-03-01T08:18:38;22.50;;;11.90;;
77400;SDS011;66855;45.414;11.082;2023-03-01T08:21:05;23.50;;;12.00;;
77400;SDS011;66855;45.414;11.082;2023-03-01T08:23:34;21.80;;;11.30;;
77400;SDS011;66855;45.414;11.082;2023-03-01T08:26:19;23.70;;;12.10;;
77400;SDS011;66855;45.414;11.082;2023-03-01T08:28:47;18.60;;;10.10;;
77400;SDS011;66855;45.414;11.082;2023-03-01T08:31:21;20.60;;;11.00;;
77400;SDS011;66855;45.414;11.082;2023-03-01T08:33:50;17.30;;;9.80;;
77400;SDS011;66855;45.414;11.082;2023-03-01T08:36:21;21.30;;;10.80;;
77400;SDS011;66855;45.414;11.082;2023-03-01T08:38:48;21.80;;;11.00;;
77400;SDS011;66855;45.414;11.082;2023-03-01T08:41:14;23.80;;;12.00;;
77400;SDS011;66855;45.414;11.082;2023-03-01T08:43:41;19.40;;;10.60;;
77400;SDS011;66855;45.414;11.082;2023-03-01T08:46:07;22.80;;;11.30;;
77400;SDS011;66855;45.414;11.082;2023-03-01T08:48:33;22.20;;;10.60;;
77400;SDS011;66855;45.414;11.082;2023-03-01T08:53:41;23.10;;;12.90;;
77400;SDS011;66855;45.414;11.082;2023-03-01T08:56:08;25.00;;;10.50;;
77400;SDS011;66855;45.414;11.082;2023-03-01T08:58:35;21.70;;;10.20;;
77400;SDS011;66855;45.414;11.082;2023-03-01T09:01:06;21.50;;;10.40;;
77400;SDS011;66855;45.414;11.082;2023-03-01T09:03:33;19.10;;;10.40;;
77400;SDS011;66855;45.414;11.082;2023-03-01T09:06:00;18.40;;;10.60;;
77400;SDS011;66855;45.414;11.082;2023-03-01T09:08:27;20.80;;;10.40;;
77400;SDS011;66855;45.414;11.082;2023-03-01T09:10:54;20.80;;;10.70;;
77400;SDS011;66855;45.414;11.082;2023-03-01T09:13:20;17.30;;;10.10;;
77400;SDS011;66855;45.414;11.082;2023-03-01T09:15:46;21.60;;;11.10;;
77400;SDS011;66855;45.414;11.082;2023-03-01T09:18:12;20.20;;;11.20;;
77400;SDS011;66855;45.414;11.082;2023-03-01T09:20:38;19.50;;;9.90;;
77400;SDS011;66855;45.414;11.082;2023-03-01T09:23:05;22.40;;;11.30;;
77400;SDS011;66855;45.414;11.082;2023-03-01T09:25:31;21.70;;;10.70;;
77400;SDS011;66855;45.414;11.082;2023-03-01T09:27:57;19.00;;;10.20;;
77400;SDS011;66855;45.414;11.082;2023-03-01T09:30:23;24.70;;;11.80;;
77400;SDS011;66855;45.414;11.082;2023-03-01T09:32:49;22.60;;;12.50;;
77400;SDS011;66855;45.414;11.082;2023-03-01T09:35:16;24.30;;;10.90;;
77400;SDS011;66855;45.414;11.082;2023-03-01T09:37:42;27.30;;;14.30;;
77400;SDS011;66855;45.414;11.082;2023-03-01T09:40:12;26.70;;;12.20;;
77400;SDS011;66855;45.414;11.082;2023-03-01T09:46:03;28.70;;;12.40;;
77400;SDS011;66855;45.414;11.082;2023-03-01T09:48:33;19.70;;;10.70;;
77400;SDS011;66855;45.414;11.082;2023-03-01T09:51:06;26.10;;;11.60;;
77400;SDS011;66855;45.414;11.082;2023-03-01T09:53:34;20.80;;;10.20;;
77400;SDS011;66855;45.414;11.082;2023-03-01T09:56:05;19.20;;;10.70;;
77400;SDS011;66855;45.414;11.082;2023-03-01T10:09:46;15.60;;;8.30;;
77400;SDS011;66855;45.414;11.082;2023-03-01T10:12:32;14.60;;;7.40;;
77400;SDS011;66855;45.414;11.082;2023-03-01T10:15:08;16.90;;;8.00;;
77400;SDS011;66855;45.414;11.082;2023-03-01T10:17:45;17.20;;;8.10;;
77400;SDS011;66855;45.414;11.082;2023-03-01T10:20:22;15.90;;;8.70;;
77400;SDS011;66855;45.414;11.082;2023-03-01T10:22:54;16.20;;;8.80;;
77400;SDS011;66855;45.414;11.082;2023-03-01T10:25:44;15.00;;;8.90;;
77400;SDS011;66855;45.414;11.082;2023-03-01T10:28:17;18.00;;;10.30;;
77400;SDS011;66855;45.414;11.082;2023-03-01T10:30:57;20.20;;;8.70;;
77400;SDS011;66855;45.414;11.082;2023-03-01T10:33:28;19.50;;;10.20;;
77400;SDS011;66855;45.414;11.082;2023-03-01T10:35:57;18.30;;;9.90;;
77400;SDS011;66855;45.414;11.082;2023-03-01T10:38:23;19.50;;;11.00;;
77400;SDS011;66855;45.414;11.082;2023-03-01T10:40:53;20.80;;;10.60;;
77400;SDS011;66855;45.414;11.082;2023-03-01T10:43:20;18.30;;;10.10;;
77400;SDS011;66855;45.414;11.082;2023-03-01T10:45:46;19.90;;;10.70;;
77400;SDS011;66855;45.414;11.082;2023-03-01T10:50:50;17.70;;;9.60;;
77400;SDS011;66855;45.414;11.082;2023-03-01T10:53:24;19.80;;;10.90;;
77400;SDS011;66855;45.414;11.082;2023-03-01T10:56:01;19.60;;;10.10;;
77400;SDS011;66855;45.414;11.082;2023-03-01T10:58:36;19.40;;;9.80;;
77400;SDS011;66855;45.414;11.082;2023-03-01T11:01:04;16.60;;;9.30;;
77400;SDS011;66855;45.414;11.082;2023-03-01T11:06:33;16.00;;;8.00;;
77400;SDS011;66855;45.414;11.082;2023-03-01T11:09:17;12.70;;;6.70;;
77400;SDS011;66855;45.414;11.082;2023-03-01T11:11:57;13.20;;;7.50;;
77400;SDS011;66855;45.414;11.082;2023-03-01T11:14:26;14.50;;;8.00;;
77400;SDS011;66855;45.414;11.082;2023-03-01T11:17:01;16.50;;;7.80;;
77400;SDS011;66855;45.414;11.082;2023-03-01T11:19:28;17.30;;;8.50;;
77400;SDS011;66855;45.414;11.082;2023-03-01T11:21:56;14.60;;;8.00;;
77400;SDS011;66855;45.414;11.082;2023-03-01T11:24:40;15.20;;;6.90;;
77400;SDS011;66855;45.414;11.082;2023-03-01T11:27:19;13.30;;;7.20;;
77400;SDS011;66855;45.414;11.082;2023-03-01T11:30:13;13.40;;;6.30;;
77400;SDS011;66855;45.414;11.082;2023-03-01T11:33:04;10.60;;;5.80;;
77400;SDS011;66855;45.414;11.082;2023-03-01T12:06:56;15.00;;;7.30;;
77400;SDS011;66855;45.414;11.082;2023-03-01T12:22:12;12.50;;;5.70;;
77400;SDS011;66855;45.414;11.082;2023-03-01T12:33:17;8.50;;;3.50;;
77400;SDS011;66855;45.414;11.082;2023-03-01T12:36:05;9.30;;;3.50;;
77400;SDS011;66855;45.414;11.082;2023-03-01T12:38:57;7.00;;;3.30;;
77400;SDS011;66855;45.414;11.082;2023-03-01T12:41:46;9.70;;;4.20;;
77400;SDS011;66855;45.414;11.082;2023-03-01T12:47:23;6.00;;;2.90;;
77400;SDS011;66855;45.414;11.082;2023-03-01T12:50:03;11.00;;;3.20;;
77400;SDS011;66855;45.414;11.082;2023-03-01T12:55:02;6.10;;;3.10;;
77400;SDS011;66855;45.414;11.082;2023-03-01T12:57:39;11.00;;;3.50;;
77400;SDS011;66855;45.414;11.082;2023-03-01T13:02:58;10.20;;;3.40;;
77400;SDS011;66855;45.414;11.082;2023-03-01T13:10:52;5.50;;;2.60;;
77400;SDS011;66855;45.414;11.082;2023-03-01T13:13:28;11.60;;;3.40;;
77400;SDS011;66855;45.414;11.082;2023-03-01T13:15:55;9.70;;;3.60;;
77400;SDS011;66855;45.414;11.082;2023-03-01T13:20:49;7.20;;;3.10;;
77400;SDS011;66855;45.414;11.082;2023-03-01T13:33:52;14.00;;;3.50;;
77400;SDS011;66855;45.414;11.082;2023-03-01T13:39:01;8.40;;;3.40;;
77400;SDS011;66855;45.414;11.082;2023-03-01T13:46:50;8.10;;;3.80;;
77400;SDS011;66855;45.414;11.082;2023-03-01T13:49:19;9.80;;;3.20;;
77400;SDS011;66855;45.414;11.082;2023-03-01T13:51:51;10.00;;;3.00;;
77400;SDS011;66855;45.414;11.082;2023-03-01T13:54:26;9.10;;;3.80;;
77400;SDS011;66855;45.414;11.082;2023-03-01T13:56:56;10.20;;;3.60;;
77400;SDS011;66855;45.414;11.082;2023-03-01T13:59:24;9.00;;;3.90;;
77400;SDS011;66855;45.414;11.082;2023-03-01T14:01:59;7.10;;;3.30;;
77400;SDS011;66855;45.414;11.082;2023-03-01T14:04:30;9.90;;;3.90;;
77400;SDS011;66855;45.414;11.082;2023-03-01T14:09:37;8.40;;;3.00;;
77400;SDS011;66855;45.414;11.082;2023-03-01T14:15:37;9.10;;;3.70;;
77400;SDS011;66855;45.414;11.082;2023-03-01T14:20:27;8.10;;;2.90;;
77400;SDS011;66855;45.414;11.082;2023-03-01T14:22:56;6.70;;;3.60;;
77400;SDS011;66855;45.414;11.082;2023-03-01T14:27:56;6.80;;;3.20;;
77400;SDS011;66855;45.414;11.082;2023-03-01T14:30:30;6.10;;;2.60;;
77400;SDS011;66855;45.414;11.082;2023-03-01T14:32:59;9.60;;;3.80;;
77400;SDS011;66855;45.414;11.082;2023-03-01T14:35:28;5.70;;;2.80;;
77400;SDS011;66855;45.414;11.082;2023-03-01T14:37:57;5.30;;;2.30;;
77400;SDS011;66855;45.414;11.082;2023-03-01T14:40:34;9.20;;;3.10;;
77400;SDS011;66855;45.414;11.082;2023-03-01T14:43:02;5.80;;;3.10;;
77400;SDS011;66855;45.414;11.082;2023-03-01T14:45:35;8.30;;;2.50;;
77400;SDS011;66855;45.414;11.082;2023-03-01T14:48:02;8.80;;;3.50;;
77400;SDS011;66855;45.414;11.082;2023-03-01T14:50:31;9.30;;;3.40;;
77400;SDS011;66855;45.414;11.082;2023-03-01T14:52:59;12.40;;;3.40;;
77400;SDS011;66855;45.414;11.082;2023-03-01T14:55:31;9.00;;;3.20;;
77400;SDS011;66855;45.414;11.082;2023-03-01T14:58:02;6.40;;;3.10;;
77400;SDS011;66855;45.414;11.082;2023-03-01T15:00:29;7.70;;;3.10;;
77400;SDS011;66855;45.414;11.082;2023-03-01T15:03:00;7.40;;;2.50;;
77400;SDS011;66855;45.414;11.082;2023-03-01T15:05:35;7.50;;;3.10;;
77400;SDS011;66855;45.414;11.082;2023-03-01T15:08:02;6.50;;;3.10;;
77400;SDS011;66855;45.414;11.082;2023-03-01T15:10:30;6.40;;;3.00;;
77400;SDS011;66855;45.414;11.082;2023-03-01T15:13:19;10.30;;;3.00;;
77400;SDS011;66855;45.414;11.082;2023-03-01T15:15:48;8.10;;;2.90;;
77400;SDS011;66855;45.414;11.082;2023-03-01T15:18:21;7.60;;;4.10;;
77400;SDS011;66855;45.414;11.082;2023-03-01T15:20:49;6.80;;;4.00;;
77400;SDS011;66855;45.414;11.082;2023-03-01T15:23:25;14.10;;;3.70;;
77400;SDS011;66855;45.414;11.082;2023-03-01T15:25:53;10.00;;;4.00;;
77400;SDS011;66855;45.414;11.082;2023-03-01T15:28:24;8.90;;;4.10;;
77400;SDS011;66855;45.414;11.082;2023-03-01T15:30:56;9.90;;;4.30;;
77400;SDS011;66855;45.414;11.082;2023-03-01T15:33:32;9.70;;;4.20;;
77400;SDS011;66855;45.414;11.082;2023-03-01T15:36:01;8.10;;;4.20;;
77400;SDS011;66855;45.414;11.082;2023-03-01T15:38:36;8.10;;;4.60;;
77400;SDS011;66855;45.414;11.082;2023-03-01T15:44:28;8.30;;;4.40;;
77400;SDS011;66855;45.414;11.082;2023-03-01T15:47:21;10.20;;;5.90;;
77400;SDS011;66855;45.414;11.082;2023-03-01T15:49:55;8.20;;;5.00;;
77400;SDS011;66855;45.414;11.082;2023-03-01T15:52:35;8.80;;;4.30;;
77400;SDS011;66855;45.414;11.082;2023-03-01T15:55:07;10.40;;;5.20;;
77400;SDS011;66855;45.414;11.082;2023-03-01T15:57:44;10.20;;;4.70;;
77400;SDS011;66855;45.414;11.082;2023-03-01T16:00:11;8.90;;;4.10;;
77400;SDS011;66855;45.414;11.082;2023-03-01T16:02:39;6.10;;;3.70;;
77400;SDS011;66855;45.414;11.082;2023-03-01T16:05:21;8.30;;;4.20;;
77400;SDS011;66855;45.414;11.082;2023-03-01T16:07:50;8.60;;;3.80;;
77400;SDS011;66855;45.414;11.082;2023-03-01T16:10:17;11.70;;;3.90;;
77400;SDS011;66855;45.414;11.082;2023-03-01T16:12:44;6.80;;;3.70;;
77400;SDS011;66855;45.414;11.082;2023-03-01T16:15:20;7.10;;;3.70;;
77400;SDS011;66855;45.414;11.082;2023-03-01T16:17:48;6.40;;;3.70;;
77400;SDS011;66855;45.414;11.082;2023-03-01T16:20:20;7.10;;;4.00;;
77400;SDS011;66855;45.414;11.082;2023-03-01T16:22:59;8.60;;;4.00;;
77400;SDS011;66855;45.414;11.082;2023-03-01T16:25:29;6.40;;;4.00;;
77400;SDS011;66855;45.414;11.082;2023-03-01T16:27:58;7.50;;;4.00;;
77400;SDS011;66855;45.414;11.082;2023-03-01T16:30:26;10.00;;;4.00;;
77400;SDS011;66855;45.414;11.082;2023-03-01T16:32:53;11.40;;;3.90;;
77400;SDS011;66855;45.414;11.082;2023-03-01T16:35:20;8.00;;;4.50;;
77400;SDS011;66855;45.414;11.082;2023-03-01T16:37:47;8.50;;;4.30;;
77400;SDS011;66855;45.414;11.082;2023-03-01T16:40:21;10.10;;;4.70;;
77400;SDS011;66855;45.414;11.082;2023-03-01T16:42:55;7.70;;;4.30;;
77400;SDS011;66855;45.414;11.082;2023-03-01T16:45:25;7.80;;;4.50;;
77400;SDS011;66855;45.414;11.082;2023-03-01T16:47:52;7.20;;;4.10;;
77400;SDS011;66855;45.414;11.082;2023-03-01T16:50:21;9.90;;;4.20;;
77400;SDS011;66855;45.414;11.082;2023-03-01T16:52:48;13.10;;;6.10;;
77400;SDS011;66855;45.414;11.082;2023-03-01T16:55:14;10.70;;;6.30;;
77400;SDS011;66855;45.414;11.082;2023-03-01T16:57:40;13.00;;;6.70;;
77400;SDS011;66855;45.414;11.082;2023-03-01T17:00:07;13.00;;;7.40;;
77400;SDS011;66855;45.414;11.082;2023-03-01T17:02:38;13.50;;;8.20;;
77400;SDS011;66855;45.414;11.082;2023-03-01T17:05:06;9.00;;;5.80;;